PWSweather.com
Personal Weather Stations
Station Observations
NIGHT1
EastleighGB

EastleighGB

Lat: 50.966307, Lon: -1.380982

Elevation: 78

Station Type: Davis VP2 with daytime FARS

Latest ConditionsUpdated 6:00:00 PM GMT Tuesday, Sep 1, 2015
Currently Today's Max Today's Min Today's Average
Temperature 61.3°F16.3°C 68.6°F20.3°C 53.3°F11.8°C 59.3°F15.2°C
Dew Point 51.8°F11.0°C 56.5°F13.6°C 49.9°F9.9°C 53.5°F11.9°C
Winds 1.0 mph NW1.6 kmh NW 6.5 mph NW10.5 kmh NW - 3.3 mph 5.3 kmh
Wind Gusts 3.0 mph4.8 kmh 15.0 mph24.1 kmh - -
Humidity 71% 97% 53% 83%
Pressure 30.06 in1017.9 mb 30.07 in1018.3 mb 29.98 in1015.2 mb -
Hour Temp Dew Point Humidity Winds Wind Gusts Pressure Precip Precip Rate Daily Precip Total
06:00 PM 61.3°F16.3°C 51.8°F11.0°C 71% 1.0 mph NW1.6 kmh NW 3.0 mph4.8 kmh 30.06 in1017.9 mb 0.00 in0.0 mm 0.00 in0.0 mm 0.00 in0.0 mm
05:55 PM 61.5°F16.4°C 51.2°F10.7°C 69% 1.0 mph NW1.6 kmh NW 3.0 mph4.8 kmh 30.06 in1017.9 mb 0.00 in0.0 mm 0.00 in0.0 mm 0.00 in0.0 mm
05:50 PM 61.8°F16.6°C 51.9°F11.1°C 70% 1.2 mph NW1.9 kmh NW 3.0 mph4.8 kmh 30.06 in1017.9 mb 0.00 in0.0 mm 0.00 in0.0 mm 0.00 in0.0 mm
05:45 PM 62.1°F16.7°C 51.4°F10.8°C 68% 1.7 mph NW2.7 kmh NW 4.0 mph6.4 kmh 30.06 in1017.9 mb 0.00 in0.0 mm 0.00 in0.0 mm 0.00 in0.0 mm
05:40 PM 62.3°F16.8°C 52.0°F11.1°C 69% 2.0 mph NW3.2 kmh NW 5.0 mph8.0 kmh 30.06 in1017.9 mb 0.00 in0.0 mm 0.00 in0.0 mm 0.00 in0.0 mm
05:35 PM 62.9°F17.2°C 51.8°F11.0°C 67% 2.2 mph NW3.5 kmh NW 5.0 mph8.0 kmh 30.06 in1017.9 mb 0.00 in0.0 mm 0.00 in0.0 mm 0.00 in0.0 mm
05:30 PM 63.3°F17.4°C 51.7°F10.9°C 66% 2.7 mph NW4.3 kmh NW 7.0 mph11.3 kmh 30.06 in1017.9 mb 0.00 in0.0 mm 0.00 in0.0 mm 0.00 in0.0 mm
05:25 PM 63.8°F17.7°C 51.4°F10.8°C 64% 3.4 mph NW5.5 kmh NW 9.0 mph14.5 kmh 30.06 in1017.9 mb 0.00 in0.0 mm 0.00 in0.0 mm 0.00 in0.0 mm
05:20 PM 64.0°F17.8°C 51.6°F10.9°C 64% 3.9 mph NNW6.3 kmh NNW 9.0 mph14.5 kmh 30.06 in1017.9 mb 0.00 in0.0 mm 0.00 in0.0 mm 0.00 in0.0 mm
05:15 PM 64.1°F17.8°C 51.7°F10.9°C 64% 4.0 mph NW6.4 kmh NW 10.0 mph16.1 kmh 30.06 in1017.9 mb 0.00 in0.0 mm 0.00 in0.0 mm 0.00 in0.0 mm
05:10 PM 64.4°F18.0°C 51.5°F10.8°C 63% 4.2 mph NW6.8 kmh NW 10.0 mph16.1 kmh 30.06 in1017.9 mb 0.00 in0.0 mm 0.00 in0.0 mm 0.00 in0.0 mm
05:05 PM 65.1°F18.4°C 53.0°F11.7°C 65% 4.9 mph NW7.9 kmh NW 9.0 mph14.5 kmh 30.06 in1017.9 mb 0.00 in0.0 mm 0.00 in0.0 mm 0.00 in0.0 mm
05:00 PM 65.2°F18.4°C 53.1°F11.7°C 65% 5.7 mph NW9.2 kmh NW 13.0 mph20.9 kmh 30.06 in1017.9 mb 0.00 in0.0 mm 0.00 in0.0 mm 0.00 in0.0 mm
04:55 PM 65.4°F18.6°C 53.3°F11.8°C 65% 6.0 mph NW9.7 kmh NW 14.0 mph22.5 kmh 30.05 in1017.6 mb 0.00 in0.0 mm 0.00 in0.0 mm 0.00 in0.0 mm
04:50 PM 65.5°F18.6°C 53.0°F11.7°C 64% 6.0 mph NNW9.7 kmh NNW 14.0 mph22.5 kmh 30.05 in1017.6 mb 0.00 in0.0 mm 0.00 in0.0 mm 0.00 in0.0 mm
04:45 PM 66.0°F18.9°C 53.0°F11.7°C 63% 6.0 mph NW9.7 kmh NW 15.0 mph24.1 kmh 30.05 in1017.6 mb 0.00 in0.0 mm 0.00 in0.0 mm 0.00 in0.0 mm
04:40 PM 66.6°F19.2°C 53.2°F11.8°C 62% 6.0 mph NW9.7 kmh NW 15.0 mph24.1 kmh 30.05 in1017.6 mb 0.00 in0.0 mm 0.00 in0.0 mm 0.00 in0.0 mm
04:35 PM 66.6°F19.2°C 52.3°F11.3°C 60% 6.0 mph WNW9.7 kmh WNW 12.0 mph19.3 kmh 30.05 in1017.6 mb 0.00 in0.0 mm 0.00 in0.0 mm 0.00 in0.0 mm
04:30 PM 65.9°F18.8°C 51.6°F10.9°C 60% 5.8 mph WNW9.3 kmh WNW 11.0 mph17.7 kmh 30.05 in1017.6 mb 0.00 in0.0 mm 0.00 in0.0 mm 0.00 in0.0 mm
04:25 PM 65.4°F18.6°C 50.7°F10.4°C 59% 4.9 mph WNW7.9 kmh WNW 11.0 mph17.7 kmh 30.05 in1017.6 mb 0.00 in0.0 mm 0.00 in0.0 mm 0.00 in0.0 mm
04:20 PM 65.5°F18.6°C 49.9°F9.9°C 57% 4.5 mph W7.2 kmh W 11.0 mph17.7 kmh 30.05 in1017.6 mb 0.00 in0.0 mm 0.00 in0.0 mm 0.00 in0.0 mm
04:15 PM 66.1°F18.9°C 49.9°F9.9°C 56% 4.8 mph WNW7.7 kmh WNW 10.0 mph16.1 kmh 30.04 in1017.3 mb 0.00 in0.0 mm 0.00 in0.0 mm 0.00 in0.0 mm
04:10 PM 66.6°F19.2°C 50.4°F10.2°C 56% 4.1 mph WNW6.6 kmh WNW 12.0 mph19.3 kmh 30.05 in1017.6 mb 0.00 in0.0 mm 0.00 in0.0 mm 0.00 in0.0 mm
04:05 PM 67.2°F19.6°C 50.5°F10.3°C 55% 2.7 mph W4.3 kmh W 12.0 mph19.3 kmh 30.05 in1017.6 mb 0.00 in0.0 mm 0.00 in0.0 mm 0.00 in0.0 mm
04:00 PM 68.3°F20.2°C 50.5°F10.3°C 53% 2.0 mph NW3.2 kmh NW 8.0 mph12.9 kmh 30.05 in1017.6 mb 0.00 in0.0 mm 0.00 in0.0 mm 0.00 in0.0 mm
03:55 PM 68.5°F20.3°C 51.2°F10.7°C 54% 2.0 mph NW3.2 kmh NW 4.0 mph6.4 kmh 30.05 in1017.6 mb 0.00 in0.0 mm 0.00 in0.0 mm 0.00 in0.0 mm
03:50 PM 68.6°F20.3°C 52.3°F11.3°C 56% 2.0 mph NW3.2 kmh NW 4.0 mph6.4 kmh 30.05 in1017.6 mb 0.00 in0.0 mm 0.00 in0.0 mm 0.00 in0.0 mm
03:45 PM 67.1°F19.5°C 51.8°F11.0°C 58% 2.0 mph NNW3.2 kmh NNW 6.0 mph9.7 kmh 30.05 in1017.6 mb 0.00 in0.0 mm 0.00 in0.0 mm 0.00 in0.0 mm
03:40 PM 65.1°F18.4°C 51.3°F10.7°C 61% 2.5 mph NNW4.0 kmh NNW 6.0 mph9.7 kmh 30.05 in1017.6 mb 0.00 in0.0 mm 0.00 in0.0 mm 0.00 in0.0 mm
03:35 PM 66.2°F19.0°C 51.9°F11.1°C 60% 2.8 mph NNW4.5 kmh NNW 6.0 mph9.7 kmh 30.05 in1017.6 mb 0.00 in0.0 mm 0.00 in0.0 mm 0.00 in0.0 mm
03:30 PM 66.6°F19.2°C 52.7°F11.5°C 61% 2.3 mph NW3.7 kmh NW 8.0 mph12.9 kmh 30.05 in1017.6 mb 0.00 in0.0 mm 0.00 in0.0 mm 0.00 in0.0 mm
03:25 PM 67.1°F19.5°C 51.8°F11.0°C 58% 2.0 mph NW3.2 kmh NW 8.0 mph12.9 kmh 30.05 in1017.6 mb 0.00 in0.0 mm 0.00 in0.0 mm 0.00 in0.0 mm
03:20 PM 68.6°F20.3°C 53.7°F12.1°C 59% 2.0 mph N3.2 kmh N 6.0 mph9.7 kmh 30.05 in1017.6 mb 0.00 in0.0 mm 0.00 in0.0 mm 0.00 in0.0 mm
03:15 PM 67.1°F19.5°C 52.3°F11.3°C 59% 2.0 mph NW3.2 kmh NW 6.0 mph9.7 kmh 30.05 in1017.6 mb 0.00 in0.0 mm 0.00 in0.0 mm 0.00 in0.0 mm
03:10 PM 66.1°F18.9°C 52.7°F11.5°C 62% 2.0 mph NW3.2 kmh NW 6.0 mph9.7 kmh 30.05 in1017.6 mb 0.00 in0.0 mm 0.00 in0.0 mm 0.00 in0.0 mm
03:05 PM 65.6°F18.7°C 52.2°F11.2°C 62% 2.5 mph NW4.0 kmh NW 5.0 mph8.0 kmh 30.05 in1017.6 mb 0.00 in0.0 mm 0.00 in0.0 mm 0.00 in0.0 mm
03:00 PM 65.0°F18.3°C 51.2°F10.7°C 61% 2.9 mph NNW4.7 kmh NNW 7.0 mph11.3 kmh 30.05 in1017.6 mb 0.00 in0.0 mm 0.00 in0.0 mm 0.00 in0.0 mm
02:55 PM 65.4°F18.6°C 51.1°F10.6°C 60% 2.4 mph NNW3.9 kmh NNW 9.0 mph14.5 kmh 30.05 in1017.6 mb 0.00 in0.0 mm 0.00 in0.0 mm 0.00 in0.0 mm
02:50 PM 67.0°F19.4°C 51.7°F10.9°C 58% 2.0 mph NW3.2 kmh NW 9.0 mph14.5 kmh 30.05 in1017.6 mb 0.00 in0.0 mm 0.00 in0.0 mm 0.00 in0.0 mm
02:45 PM 66.1°F18.9°C 53.1°F11.7°C 63% 1.9 mph NW3.1 kmh NW 6.0 mph9.7 kmh 30.05 in1017.6 mb 0.00 in0.0 mm 0.00 in0.0 mm 0.00 in0.0 mm
02:40 PM 65.7°F18.7°C 53.2°F11.8°C 64% 2.4 mph NW3.9 kmh NW 6.0 mph9.7 kmh 30.05 in1017.6 mb 0.00 in0.0 mm 0.00 in0.0 mm 0.00 in0.0 mm
02:35 PM 65.0°F18.3°C 52.5°F11.4°C 64% 3.1 mph NW5.0 kmh NW 9.0 mph14.5 kmh 30.05 in1017.6 mb 0.00 in0.0 mm 0.00 in0.0 mm 0.00 in0.0 mm
02:30 PM 65.0°F18.3°C 52.9°F11.6°C 65% 3.1 mph NW5.0 kmh NW 9.0 mph14.5 kmh 30.05 in1017.6 mb 0.00 in0.0 mm 0.00 in0.0 mm 0.00 in0.0 mm
02:25 PM 65.6°F18.7°C 52.2°F11.2°C 62% 3.2 mph NW5.1 kmh NW 9.0 mph14.5 kmh 30.05 in1017.6 mb 0.00 in0.0 mm 0.00 in0.0 mm 0.00 in0.0 mm
02:20 PM 65.8°F18.8°C 52.4°F11.3°C 62% 3.2 mph NW5.1 kmh NW 9.0 mph14.5 kmh 30.05 in1017.6 mb 0.00 in0.0 mm 0.00 in0.0 mm 0.00 in0.0 mm
02:15 PM 65.7°F18.7°C 52.3°F11.3°C 62% 3.5 mph NW5.6 kmh NW 9.0 mph14.5 kmh 30.05 in1017.6 mb 0.00 in0.0 mm 0.00 in0.0 mm 0.00 in0.0 mm
02:10 PM 64.7°F18.2°C 53.1°F11.7°C 66% 4.3 mph NW6.9 kmh NW 13.0 mph20.9 kmh 30.05 in1017.6 mb 0.00 in0.0 mm 0.00 in0.0 mm 0.00 in0.0 mm
02:05 PM 65.2°F18.4°C 53.1°F11.7°C 65% 4.1 mph NW6.6 kmh NW 13.0 mph20.9 kmh 30.06 in1017.9 mb 0.00 in0.0 mm 0.00 in0.0 mm 0.00 in0.0 mm
02:00 PM 65.8°F18.8°C 52.4°F11.3°C 62% 3.4 mph WNW5.5 kmh WNW 10.0 mph16.1 kmh 30.06 in1017.9 mb 0.00 in0.0 mm 0.00 in0.0 mm 0.00 in0.0 mm
01:55 PM 67.5°F19.7°C 53.1°F11.7°C 60% 3.6 mph W5.8 kmh W 9.0 mph14.5 kmh 30.06 in1017.9 mb 0.00 in0.0 mm 0.00 in0.0 mm 0.00 in0.0 mm
01:50 PM 67.7°F19.8°C 52.9°F11.6°C 59% 4.0 mph WNW6.4 kmh WNW 13.0 mph20.9 kmh 30.06 in1017.9 mb 0.00 in0.0 mm 0.00 in0.0 mm 0.00 in0.0 mm
01:45 PM 67.0°F19.4°C 52.2°F11.2°C 59% 4.1 mph WNW6.6 kmh WNW 13.0 mph20.9 kmh 30.06 in1017.9 mb 0.00 in0.0 mm 0.00 in0.0 mm 0.00 in0.0 mm
01:40 PM 66.5°F19.2°C 52.6°F11.4°C 61% 4.7 mph WNW7.6 kmh WNW 9.0 mph14.5 kmh 30.06 in1017.9 mb 0.00 in0.0 mm 0.00 in0.0 mm 0.00 in0.0 mm
01:35 PM 64.9°F18.3°C 52.8°F11.6°C 65% 5.6 mph WNW9.0 kmh WNW 10.0 mph16.1 kmh 30.06 in1017.9 mb 0.00 in0.0 mm 0.00 in0.0 mm 0.00 in0.0 mm
01:30 PM 64.7°F18.2°C 52.7°F11.5°C 65% 5.6 mph WNW9.0 kmh WNW 13.0 mph20.9 kmh 30.06 in1017.9 mb 0.00 in0.0 mm 0.00 in0.0 mm 0.00 in0.0 mm
01:25 PM 65.6°F18.7°C 52.7°F11.5°C 63% 4.8 mph WNW7.7 kmh WNW 13.0 mph20.9 kmh 30.06 in1017.9 mb 0.00 in0.0 mm 0.00 in0.0 mm 0.00 in0.0 mm
01:20 PM 65.3°F18.5°C 52.8°F11.6°C 64% 4.1 mph WNW6.6 kmh WNW 11.0 mph17.7 kmh 30.06 in1017.9 mb 0.00 in0.0 mm 0.00 in0.0 mm 0.00 in0.0 mm
01:15 PM 65.0°F18.3°C 53.4°F11.9°C 66% 3.6 mph NW5.8 kmh NW 12.0 mph19.3 kmh 30.06 in1017.9 mb 0.00 in0.0 mm 0.00 in0.0 mm 0.00 in0.0 mm
01:10 PM 65.9°F18.8°C 53.8°F12.1°C 65% 3.1 mph NW5.0 kmh NW 12.0 mph19.3 kmh 30.06 in1017.9 mb 0.00 in0.0 mm 0.00 in0.0 mm 0.00 in0.0 mm
01:05 PM 65.2°F18.4°C 53.6°F12.0°C 66% 2.5 mph NW4.0 kmh NW 11.0 mph17.7 kmh 30.07 in1018.3 mb 0.00 in0.0 mm 0.00 in0.0 mm 0.00 in0.0 mm
01:00 PM 65.8°F18.8°C 55.3°F12.9°C 69% 2.5 mph NW4.0 kmh NW 11.0 mph17.7 kmh 30.07 in1018.3 mb 0.00 in0.0 mm 0.00 in0.0 mm 0.00 in0.0 mm
12:55 PM 63.7°F17.6°C 54.1°F12.3°C 71% 3.3 mph WNW5.3 kmh WNW 8.0 mph12.9 kmh 30.07 in1018.3 mb 0.00 in0.0 mm 0.00 in0.0 mm 0.00 in0.0 mm
12:50 PM 63.7°F17.6°C 54.1°F12.3°C 71% 4.7 mph WNW7.6 kmh WNW 8.0 mph12.9 kmh 30.07 in1018.3 mb 0.00 in0.0 mm 0.00 in0.0 mm 0.00 in0.0 mm
12:45 PM 64.1°F17.8°C 54.5°F12.5°C 71% 5.8 mph WNW9.3 kmh WNW 11.0 mph17.7 kmh 30.07 in1018.3 mb 0.00 in0.0 mm 0.00 in0.0 mm 0.00 in0.0 mm
12:40 PM 63.0°F17.2°C 53.8°F12.1°C 72% 5.5 mph WNW8.9 kmh WNW 13.0 mph20.9 kmh 30.07 in1018.3 mb 0.00 in0.0 mm 0.00 in0.0 mm 0.00 in0.0 mm
12:35 PM 63.8°F17.7°C 54.2°F12.3°C 71% 4.5 mph WNW7.2 kmh WNW 13.0 mph20.9 kmh 30.07 in1018.3 mb 0.00 in0.0 mm 0.00 in0.0 mm 0.00 in0.0 mm
12:30 PM 64.7°F18.2°C 55.1°F12.8°C 71% 4.0 mph NW6.4 kmh NW 9.0 mph14.5 kmh 30.07 in1018.3 mb 0.00 in0.0 mm 0.00 in0.0 mm 0.00 in0.0 mm
12:25 PM 65.7°F18.7°C 55.6°F13.1°C 70% 4.5 mph NW7.2 kmh NW 11.0 mph17.7 kmh 30.07 in1018.3 mb 0.00 in0.0 mm 0.00 in0.0 mm 0.00 in0.0 mm
12:20 PM 65.6°F18.7°C 55.9°F13.3°C 71% 5.4 mph NW8.7 kmh NW 11.0 mph17.7 kmh 30.07 in1018.3 mb 0.00 in0.0 mm 0.00 in0.0 mm 0.00 in0.0 mm
12:15 PM 64.9°F18.3°C 55.3°F12.9°C 71% 6.2 mph NW10.0 kmh NW 12.0 mph19.3 kmh 30.07 in1018.3 mb 0.00 in0.0 mm 0.00 in0.0 mm 0.00 in0.0 mm
12:10 PM 64.2°F17.9°C 55.0°F12.8°C 72% 6.5 mph NW10.5 kmh NW 12.0 mph19.3 kmh 30.07 in1018.3 mb 0.00 in0.0 mm 0.00 in0.0 mm 0.00 in0.0 mm
12:05 PM 62.3°F16.8°C 53.9°F12.2°C 74% 5.9 mph NW9.5 kmh NW 12.0 mph19.3 kmh 30.07 in1018.3 mb 0.00 in0.0 mm 0.00 in0.0 mm 0.00 in0.0 mm
12:00 PM 63.1°F17.3°C 54.7°F12.6°C 74% 5.0 mph WNW8.0 kmh WNW 12.0 mph19.3 kmh 30.07 in1018.3 mb 0.00 in0.0 mm 0.00 in0.0 mm 0.00 in0.0 mm
11:55 AM 64.4°F18.0°C 55.9°F13.3°C 74% 4.7 mph WNW7.6 kmh WNW 10.0 mph16.1 kmh 30.07 in1018.3 mb 0.00 in0.0 mm 0.00 in0.0 mm 0.00 in0.0 mm
11:50 AM 62.8°F17.1°C 55.1°F12.8°C 76% 5.5 mph WNW8.9 kmh WNW 12.0 mph19.3 kmh 30.07 in1018.3 mb 0.00 in0.0 mm 0.00 in0.0 mm 0.00 in0.0 mm
11:45 AM 61.8°F16.6°C 54.5°F12.5°C 77% 6.1 mph WNW9.8 kmh WNW 12.0 mph19.3 kmh 30.07 in1018.3 mb 0.00 in0.0 mm 0.00 in0.0 mm 0.00 in0.0 mm
11:40 AM 61.7°F16.5°C 54.4°F12.4°C 77% 5.5 mph WNW8.9 kmh WNW 11.0 mph17.7 kmh 30.07 in1018.3 mb 0.00 in0.0 mm 0.00 in0.0 mm 0.00 in0.0 mm
11:35 AM 61.8°F16.6°C 54.5°F12.5°C 77% 5.0 mph WNW8.0 kmh WNW 11.0 mph17.7 kmh 30.07 in1018.3 mb 0.00 in0.0 mm 0.00 in0.0 mm 0.00 in0.0 mm
11:30 AM 62.4°F16.9°C 55.1°F12.8°C 77% 4.6 mph NW7.4 kmh NW 10.0 mph16.1 kmh 30.07 in1018.3 mb 0.00 in0.0 mm 0.00 in0.0 mm 0.00 in0.0 mm
11:25 AM 62.9°F17.2°C 54.9°F12.7°C 75% 4.4 mph NW7.1 kmh NW 10.0 mph16.1 kmh 30.07 in1018.3 mb 0.00 in0.0 mm 0.00 in0.0 mm 0.00 in0.0 mm
11:20 AM 64.0°F17.8°C 55.5°F13.1°C 74% 5.1 mph NW8.2 kmh NW 9.0 mph14.5 kmh 30.06 in1017.9 mb 0.00 in0.0 mm 0.00 in0.0 mm 0.00 in0.0 mm
11:15 AM 62.7°F17.1°C 55.7°F13.2°C 78% 5.5 mph NW8.9 kmh NW 12.0 mph19.3 kmh 30.06 in1017.9 mb 0.00 in0.0 mm 0.00 in0.0 mm 0.00 in0.0 mm
11:10 AM 61.1°F16.2°C 54.2°F12.3°C 78% 5.1 mph NW8.2 kmh NW 13.0 mph20.9 kmh 30.07 in1018.3 mb 0.00 in0.0 mm 0.00 in0.0 mm 0.00 in0.0 mm
11:05 AM 61.5°F16.4°C 54.2°F12.3°C 77% 5.0 mph NW8.0 kmh NW 13.0 mph20.9 kmh 30.06 in1017.9 mb 0.00 in0.0 mm 0.00 in0.0 mm 0.00 in0.0 mm
11:00 AM 62.4°F16.9°C 54.7°F12.6°C 76% 5.1 mph WNW8.2 kmh WNW 11.0 mph17.7 kmh 30.06 in1017.9 mb 0.00 in0.0 mm 0.00 in0.0 mm 0.00 in0.0 mm
10:55 AM 62.8°F17.1°C 54.8°F12.7°C 75% 4.9 mph W7.9 kmh W 13.0 mph20.9 kmh 30.06 in1017.9 mb 0.00 in0.0 mm 0.00 in0.0 mm 0.00 in0.0 mm
10:50 AM 63.8°F17.7°C 55.7°F13.2°C 75% 4.4 mph W7.1 kmh W 13.0 mph20.9 kmh 30.06 in1017.9 mb 0.00 in0.0 mm 0.00 in0.0 mm 0.00 in0.0 mm
10:45 AM 62.9°F17.2°C 55.2°F12.9°C 76% 3.5 mph W5.6 kmh W 11.0 mph17.7 kmh 30.06 in1017.9 mb 0.00 in0.0 mm 0.00 in0.0 mm 0.00 in0.0 mm
10:40 AM 63.2°F17.3°C 55.5°F13.1°C 76% 3.3 mph WNW5.3 kmh WNW 10.0 mph16.1 kmh 30.06 in1017.9 mb 0.00 in0.0 mm 0.00 in0.0 mm 0.00 in0.0 mm
10:35 AM 62.5°F16.9°C 55.5°F13.1°C 78% 3.8 mph NW6.1 kmh NW 8.0 mph12.9 kmh 30.06 in1017.9 mb 0.00 in0.0 mm 0.00 in0.0 mm 0.00 in0.0 mm
10:30 AM 61.7°F16.5°C 55.1°F12.8°C 79% 3.7 mph WNW6.0 kmh WNW 9.0 mph14.5 kmh 30.06 in1017.9 mb 0.00 in0.0 mm 0.00 in0.0 mm 0.00 in0.0 mm
10:25 AM 60.8°F16.0°C 54.6°F12.6°C 80% 2.8 mph WNW4.5 kmh WNW 9.0 mph14.5 kmh 30.06 in1017.9 mb 0.00 in0.0 mm 0.00 in0.0 mm 0.00 in0.0 mm
10:20 AM 61.2°F16.2°C 54.6°F12.6°C 79% 2.2 mph NW3.5 kmh NW 8.0 mph12.9 kmh 30.06 in1017.9 mb 0.00 in0.0 mm 0.00 in0.0 mm 0.00 in0.0 mm
10:15 AM 62.1°F16.7°C 55.5°F13.1°C 79% 2.7 mph NNW4.3 kmh NNW 6.0 mph9.7 kmh 30.06 in1017.9 mb 0.00 in0.0 mm 0.00 in0.0 mm 0.00 in0.0 mm
10:10 AM 62.3°F16.8°C 55.4°F13.0°C 78% 3.9 mph NW6.3 kmh NW 8.0 mph12.9 kmh 30.06 in1017.9 mb 0.00 in0.0 mm 0.00 in0.0 mm 0.00 in0.0 mm
10:05 AM 62.0°F16.7°C 55.8°F13.2°C 80% 4.8 mph NW7.7 kmh NW 8.0 mph12.9 kmh 30.06 in1017.9 mb 0.00 in0.0 mm 0.00 in0.0 mm 0.00 in0.0 mm
10:00 AM 60.3°F15.7°C 54.8°F12.7°C 82% 4.4 mph NW7.1 kmh NW 10.0 mph16.1 kmh 30.06 in1017.9 mb 0.00 in0.0 mm 0.00 in0.0 mm 0.00 in0.0 mm
09:55 AM 60.6°F15.9°C 55.1°F12.8°C 82% 3.4 mph WNW5.5 kmh WNW 10.0 mph16.1 kmh 30.06 in1017.9 mb 0.00 in0.0 mm 0.00 in0.0 mm 0.00 in0.0 mm
09:50 AM 60.9°F16.1°C 55.7°F13.2°C 83% 2.8 mph WNW4.5 kmh WNW 10.0 mph16.1 kmh 30.06 in1017.9 mb 0.00 in0.0 mm 0.00 in0.0 mm 0.00 in0.0 mm
09:45 AM 59.5°F15.3°C 55.0°F12.8°C 85% 2.1 mph NW3.4 kmh NW 9.0 mph14.5 kmh 30.06 in1017.9 mb 0.00 in0.0 mm 0.00 in0.0 mm 0.00 in0.0 mm
09:40 AM 60.0°F15.6°C 55.2°F12.9°C 84% 1.7 mph NW2.7 kmh NW 7.0 mph11.3 kmh 30.06 in1017.9 mb 0.00 in0.0 mm 0.00 in0.0 mm 0.00 in0.0 mm
09:35 AM 61.0°F16.1°C 56.1°F13.4°C 84% 1.9 mph NNW3.1 kmh NNW 6.0 mph9.7 kmh 30.05 in1017.6 mb 0.00 in0.0 mm 0.00 in0.0 mm 0.00 in0.0 mm
09:30 AM 60.7°F15.9°C 56.5°F13.6°C 86% 2.4 mph N3.9 kmh N 5.0 mph8.0 kmh 30.05 in1017.6 mb 0.00 in0.0 mm 0.00 in0.0 mm 0.00 in0.0 mm
09:25 AM 59.3°F15.2°C 55.4°F13.0°C 87% 3.1 mph NNW5.0 kmh NNW 8.0 mph12.9 kmh 30.05 in1017.6 mb 0.00 in0.0 mm 0.00 in0.0 mm 0.00 in0.0 mm
09:20 AM 58.7°F14.8°C 55.2°F12.9°C 88% 3.4 mph NW5.5 kmh NW 10.0 mph16.1 kmh 30.05 in1017.6 mb 0.00 in0.0 mm 0.00 in0.0 mm 0.00 in0.0 mm
09:15 AM 58.0°F14.4°C 54.5°F12.5°C 88% 3.5 mph NW5.6 kmh NW 10.0 mph16.1 kmh 30.05 in1017.6 mb 0.00 in0.0 mm 0.00 in0.0 mm 0.00 in0.0 mm
09:10 AM 57.6°F14.2°C 54.4°F12.4°C 89% 3.3 mph NW5.3 kmh NW 13.0 mph20.9 kmh 30.05 in1017.6 mb 0.00 in0.0 mm 0.00 in0.0 mm 0.00 in0.0 mm
09:05 AM 57.4°F14.1°C 54.5°F12.5°C 90% 3.0 mph NW4.8 kmh NW 13.0 mph20.9 kmh 30.04 in1017.3 mb 0.00 in0.0 mm 0.00 in0.0 mm 0.00 in0.0 mm
09:00 AM 57.5°F14.2°C 54.6°F12.6°C 90% 3.0 mph NW4.8 kmh NW 9.0 mph14.5 kmh 30.04 in1017.3 mb 0.00 in0.0 mm 0.00 in0.0 mm 0.00 in0.0 mm
08:55 AM 57.0°F13.9°C 54.4°F12.4°C 91% 3.0 mph NW4.8 kmh NW 9.0 mph14.5 kmh 30.04 in1017.3 mb 0.00 in0.0 mm 0.00 in0.0 mm 0.00 in0.0 mm
08:50 AM 56.7°F13.7°C 54.1°F12.3°C 91% 3.4 mph NW5.5 kmh NW 8.0 mph12.9 kmh 30.04 in1017.3 mb 0.00 in0.0 mm 0.00 in0.0 mm 0.00 in0.0 mm
08:45 AM 56.3°F13.5°C 54.0°F12.2°C 92% 4.0 mph NW6.4 kmh NW 8.0 mph12.9 kmh 30.04 in1017.3 mb 0.00 in0.0 mm 0.00 in0.0 mm 0.00 in0.0 mm
08:40 AM 55.8°F13.2°C 53.5°F11.9°C 92% 4.1 mph NW6.6 kmh NW 10.0 mph16.1 kmh 30.04 in1017.3 mb 0.00 in0.0 mm 0.00 in0.0 mm 0.00 in0.0 mm
08:35 AM 55.5°F13.1°C 53.2°F11.8°C 92% 3.5 mph NW5.6 kmh NW 10.0 mph16.1 kmh 30.04 in1017.3 mb 0.00 in0.0 mm 0.00 in0.0 mm 0.00 in0.0 mm
08:30 AM 55.4°F13.0°C 53.4°F11.9°C 93% 3.0 mph NW4.8 kmh NW 10.0 mph16.1 kmh 30.04 in1017.3 mb 0.00 in0.0 mm 0.00 in0.0 mm 0.00 in0.0 mm
08:25 AM 55.3°F12.9°C 53.3°F11.8°C 93% 3.0 mph NW4.8 kmh NW 9.0 mph14.5 kmh 30.04 in1017.3 mb 0.00 in0.0 mm 0.00 in0.0 mm 0.00 in0.0 mm
08:20 AM 55.4°F13.0°C 53.7°F12.1°C 94% 3.0 mph NW4.8 kmh NW 9.0 mph14.5 kmh 30.04 in1017.3 mb 0.00 in0.0 mm 0.00 in0.0 mm 0.00 in0.0 mm
08:15 AM 55.3°F12.9°C 53.6°F12.0°C 94% 3.0 mph NW4.8 kmh NW 9.0 mph14.5 kmh 30.03 in1016.9 mb 0.00 in0.0 mm 0.00 in0.0 mm 0.00 in0.0 mm
08:10 AM 55.2°F12.9°C 53.5°F11.9°C 94% 2.5 mph NW4.0 kmh NW 6.0 mph9.7 kmh 30.03 in1016.9 mb 0.00 in0.0 mm 0.00 in0.0 mm 0.00 in0.0 mm
08:05 AM 54.9°F12.7°C 53.2°F11.8°C 94% 2.4 mph NW3.9 kmh NW 7.0 mph11.3 kmh 30.03 in1016.9 mb 0.00 in0.0 mm 0.00 in0.0 mm 0.00 in0.0 mm
08:00 AM 55.0°F12.8°C 53.3°F11.8°C 94% 2.9 mph NW4.7 kmh NW 7.0 mph11.3 kmh 30.03 in1016.9 mb 0.00 in0.0 mm 0.00 in0.0 mm 0.00 in0.0 mm
07:55 AM 55.1°F12.8°C 53.4°F11.9°C 94% 3.0 mph NW4.8 kmh NW 9.0 mph14.5 kmh 30.03 in1016.9 mb 0.00 in0.0 mm 0.00 in0.0 mm 0.00 in0.0 mm
07:50 AM 55.0°F12.8°C 53.3°F11.8°C 94% 3.0 mph NW4.8 kmh NW 9.0 mph14.5 kmh 30.03 in1016.9 mb 0.00 in0.0 mm 0.00 in0.0 mm 0.00 in0.0 mm
07:45 AM 55.0°F12.8°C 53.6°F12.0°C 95% 3.0 mph NW4.8 kmh NW 10.0 mph16.1 kmh 30.02 in1016.6 mb 0.00 in0.0 mm 0.00 in0.0 mm 0.00 in0.0 mm
07:40 AM 54.9°F12.7°C 53.5°F11.9°C 95% 3.0 mph NW4.8 kmh NW 10.0 mph16.1 kmh 30.02 in1016.6 mb 0.00 in0.0 mm 0.00 in0.0 mm 0.00 in0.0 mm
07:35 AM 54.9°F12.7°C 53.5°F11.9°C 95% 3.3 mph NW5.3 kmh NW 8.0 mph12.9 kmh 30.02 in1016.6 mb 0.00 in0.0 mm 0.00 in0.0 mm 0.00 in0.0 mm
07:30 AM 55.0°F12.8°C 53.6°F12.0°C 95% 3.8 mph NW6.1 kmh NW 8.0 mph12.9 kmh 30.02 in1016.6 mb 0.00 in0.0 mm 0.00 in0.0 mm 0.00 in0.0 mm
07:25 AM 54.8°F12.7°C 53.4°F11.9°C 95% 4.0 mph NW6.4 kmh NW 10.0 mph16.1 kmh 30.02 in1016.6 mb 0.00 in0.0 mm 0.00 in0.0 mm 0.00 in0.0 mm
07:20 AM 54.8°F12.7°C 53.7°F12.1°C 96% 4.0 mph NW6.4 kmh NW 10.0 mph16.1 kmh 30.02 in1016.6 mb 0.00 in0.0 mm 0.00 in0.0 mm 0.00 in0.0 mm
07:15 AM 54.7°F12.6°C 53.6°F12.0°C 96% 4.0 mph NW6.4 kmh NW 11.0 mph17.7 kmh 30.02 in1016.6 mb 0.00 in0.0 mm 0.00 in0.0 mm 0.00 in0.0 mm
07:10 AM 55.0°F12.8°C 53.9°F12.2°C 96% 4.0 mph NW6.4 kmh NW 11.0 mph17.7 kmh 30.02 in1016.6 mb 0.00 in0.0 mm 0.00 in0.0 mm 0.00 in0.0 mm
07:05 AM 54.7°F12.6°C 53.6°F12.0°C 96% 3.7 mph NW6.0 kmh NW 9.0 mph14.5 kmh 30.02 in1016.6 mb 0.00 in0.0 mm 0.00 in0.0 mm 0.00 in0.0 mm
07:00 AM 54.7°F12.6°C 53.6°F12.0°C 96% 3.2 mph NW5.1 kmh NW 9.0 mph14.5 kmh 30.01 in1016.3 mb 0.00 in0.0 mm 0.00 in0.0 mm 0.00 in0.0 mm
06:55 AM 54.7°F12.6°C 53.6°F12.0°C 96% 3.0 mph NW4.8 kmh NW 8.0 mph12.9 kmh 30.01 in1016.3 mb 0.00 in0.0 mm 0.00 in0.0 mm 0.00 in0.0 mm
06:50 AM 54.6°F12.6°C 53.5°F11.9°C 96% 3.0 mph NW4.8 kmh NW 7.0 mph11.3 kmh 30.01 in1016.3 mb 0.00 in0.0 mm 0.00 in0.0 mm 0.00 in0.0 mm
06:45 AM 54.6°F12.6°C 53.5°F11.9°C 96% 3.0 mph NW4.8 kmh NW 8.0 mph12.9 kmh 30.01 in1016.3 mb 0.00 in0.0 mm 0.00 in0.0 mm 0.00 in0.0 mm
06:40 AM 54.8°F12.7°C 54.0°F12.2°C 97% 3.0 mph NW4.8 kmh NW 8.0 mph12.9 kmh 30.01 in1016.3 mb 0.00 in0.0 mm 0.00 in0.0 mm 0.00 in0.0 mm
06:35 AM 54.5°F12.5°C 53.7°F12.1°C 97% 3.0 mph NW4.8 kmh NW 7.0 mph11.3 kmh 30.01 in1016.3 mb 0.00 in0.0 mm 0.00 in0.0 mm 0.00 in0.0 mm
06:30 AM 54.1°F12.3°C 53.3°F11.8°C 97% 3.0 mph NW4.8 kmh NW 8.0 mph12.9 kmh 30.01 in1016.3 mb 0.00 in0.0 mm 0.00 in0.0 mm 0.00 in0.0 mm
06:25 AM 53.9°F12.2°C 53.1°F11.7°C 97% 3.0 mph NW4.8 kmh NW 8.0 mph12.9 kmh 30.01 in1016.3 mb 0.00 in0.0 mm 0.00 in0.0 mm 0.00 in0.0 mm
06:20 AM 53.8°F12.1°C 53.0°F11.7°C 97% 3.0 mph NW4.8 kmh NW 7.0 mph11.3 kmh 30.01 in1016.3 mb 0.00 in0.0 mm 0.00 in0.0 mm 0.00 in0.0 mm
06:15 AM 53.6°F12.0°C 52.8°F11.6°C 97% 3.0 mph NW4.8 kmh NW 7.0 mph11.3 kmh 30.00 in1015.9 mb 0.00 in0.0 mm 0.00 in0.0 mm 0.00 in0.0 mm
06:10 AM 53.5°F11.9°C 52.7°F11.5°C 97% 3.0 mph WNW4.8 kmh WNW 7.0 mph11.3 kmh 30.01 in1016.3 mb 0.00 in0.0 mm 0.00 in0.0 mm 0.00 in0.0 mm
06:05 AM 53.5°F11.9°C 52.7°F11.5°C 97% 3.0 mph WNW4.8 kmh WNW 7.0 mph11.3 kmh 30.00 in1015.9 mb 0.00 in0.0 mm 0.00 in0.0 mm 0.00 in0.0 mm
06:00 AM 53.5°F11.9°C 52.7°F11.5°C 97% 3.0 mph NW4.8 kmh NW 7.0 mph11.3 kmh 30.00 in1015.9 mb 0.00 in0.0 mm 0.00 in0.0 mm 0.00 in0.0 mm
05:55 AM 53.4°F11.9°C 52.6°F11.4°C 97% 3.0 mph NW4.8 kmh NW 7.0 mph11.3 kmh 30.00 in1015.9 mb 0.00 in0.0 mm 0.00 in0.0 mm 0.00 in0.0 mm
05:50 AM 53.3°F11.8°C 52.5°F11.4°C 97% 3.0 mph NW4.8 kmh NW 8.0 mph12.9 kmh 30.00 in1015.9 mb 0.00 in0.0 mm 0.00 in0.0 mm 0.00 in0.0 mm
05:45 AM 53.4°F11.9°C 52.6°F11.4°C 97% 3.0 mph NW4.8 kmh NW 8.0 mph12.9 kmh 30.00 in1015.9 mb 0.00 in0.0 mm 0.00 in0.0 mm 0.00 in0.0 mm
05:40 AM 53.4°F11.9°C 52.6°F11.4°C 97% 2.7 mph NW4.3 kmh NW 7.0 mph11.3 kmh 30.00 in1015.9 mb 0.00 in0.0 mm 0.00 in0.0 mm 0.00 in0.0 mm
05:35 AM 53.5°F11.9°C 52.7°F11.5°C 97% 2.6 mph NW4.2 kmh NW 7.0 mph11.3 kmh 30.00 in1015.9 mb 0.00 in0.0 mm 0.00 in0.0 mm 0.00 in0.0 mm
05:30 AM 53.4°F11.9°C 52.6°F11.4°C 97% 2.4 mph NW3.9 kmh NW 6.0 mph9.7 kmh 30.00 in1015.9 mb 0.00 in0.0 mm 0.00 in0.0 mm 0.00 in0.0 mm
05:25 AM 53.3°F11.8°C 52.5°F11.4°C 97% 1.9 mph WNW3.1 kmh WNW 6.0 mph9.7 kmh 30.00 in1015.9 mb 0.00 in0.0 mm 0.00 in0.0 mm 0.00 in0.0 mm
05:20 AM 53.5°F11.9°C 52.7°F11.5°C 97% 1.7 mph NW2.7 kmh NW 6.0 mph9.7 kmh 30.00 in1015.9 mb 0.00 in0.0 mm 0.00 in0.0 mm 0.00 in0.0 mm
05:15 AM 53.4°F11.9°C 52.6°F11.4°C 97% 1.8 mph NW2.9 kmh NW 3.0 mph4.8 kmh 30.00 in1015.9 mb 0.00 in0.0 mm 0.00 in0.0 mm 0.00 in0.0 mm
05:10 AM 53.5°F11.9°C 52.7°F11.5°C 97% 2.0 mph NW3.2 kmh NW 4.0 mph6.4 kmh 30.00 in1015.9 mb 0.00 in0.0 mm 0.00 in0.0 mm 0.00 in0.0 mm
05:05 AM 53.5°F11.9°C 52.7°F11.5°C 97% 2.2 mph WNW3.5 kmh WNW 4.0 mph6.4 kmh 30.00 in1015.9 mb 0.00 in0.0 mm 0.00 in0.0 mm 0.00 in0.0 mm
05:00 AM 53.5°F11.9°C 52.7°F11.5°C 97% 2.7 mph WNW4.3 kmh WNW 3.0 mph4.8 kmh 30.00 in1015.9 mb 0.00 in0.0 mm 0.00 in0.0 mm 0.00 in0.0 mm
04:55 AM 53.6°F12.0°C 52.8°F11.6°C 97% 3.0 mph WNW4.8 kmh WNW 7.0 mph11.3 kmh 30.00 in1015.9 mb 0.00 in0.0 mm 0.00 in0.0 mm 0.00 in0.0 mm
04:50 AM 53.7°F12.1°C 52.9°F11.6°C 97% 3.0 mph WNW4.8 kmh WNW 7.0 mph11.3 kmh 30.00 in1015.9 mb 0.00 in0.0 mm 0.00 in0.0 mm 0.00 in0.0 mm
04:45 AM 53.7°F12.1°C 52.9°F11.6°C 97% 3.0 mph WNW4.8 kmh WNW 6.0 mph9.7 kmh 29.99 in1015.6 mb 0.00 in0.0 mm 0.00 in0.0 mm 0.00 in0.0 mm
04:40 AM 53.8°F12.1°C 53.0°F11.7°C 97% 3.0 mph WNW4.8 kmh WNW 6.0 mph9.7 kmh 29.99 in1015.6 mb 0.00 in0.0 mm 0.00 in0.0 mm 0.00 in0.0 mm
04:35 AM 53.8°F12.1°C 53.0°F11.7°C 97% 3.0 mph WNW4.8 kmh WNW 6.0 mph9.7 kmh 29.99 in1015.6 mb 0.00 in0.0 mm 0.00 in0.0 mm 0.00 in0.0 mm
04:30 AM 53.9°F12.2°C 53.1°F11.7°C 97% 3.0 mph WNW4.8 kmh WNW 7.0 mph11.3 kmh 29.99 in1015.6 mb 0.00 in0.0 mm 0.00 in0.0 mm 0.00 in0.0 mm
04:25 AM 54.0°F12.2°C 53.2°F11.8°C 97% 3.0 mph WNW4.8 kmh WNW 7.0 mph11.3 kmh 29.99 in1015.6 mb 0.00 in0.0 mm 0.00 in0.0 mm 0.00 in0.0 mm
04:20 AM 53.9°F12.2°C 53.1°F11.7°C 97% 3.0 mph WNW4.8 kmh WNW 6.0 mph9.7 kmh 29.99 in1015.6 mb 0.00 in0.0 mm 0.00 in0.0 mm 0.00 in0.0 mm
04:15 AM 54.0°F12.2°C 53.2°F11.8°C 97% 3.0 mph WNW4.8 kmh WNW 6.0 mph9.7 kmh 29.99 in1015.6 mb 0.00 in0.0 mm 0.00 in0.0 mm 0.00 in0.0 mm
04:10 AM 54.0°F12.2°C 53.2°F11.8°C 97% 2.7 mph WNW4.3 kmh WNW 7.0 mph11.3 kmh 29.99 in1015.6 mb 0.00 in0.0 mm 0.00 in0.0 mm 0.00 in0.0 mm
04:05 AM 54.1°F12.3°C 53.3°F11.8°C 97% 2.7 mph WNW4.3 kmh WNW 7.0 mph11.3 kmh 30.00 in1015.9 mb 0.00 in0.0 mm 0.00 in0.0 mm 0.00 in0.0 mm
04:00 AM 54.1°F12.3°C 53.3°F11.8°C 97% 3.0 mph WNW4.8 kmh WNW 4.0 mph6.4 kmh 30.00 in1015.9 mb 0.00 in0.0 mm 0.00 in0.0 mm 0.00 in0.0 mm
03:55 AM 54.1°F12.3°C 53.3°F11.8°C 97% 3.0 mph WNW4.8 kmh WNW 5.0 mph8.0 kmh 30.00 in1015.9 mb 0.00 in0.0 mm 0.00 in0.0 mm 0.00 in0.0 mm
03:50 AM 54.1°F12.3°C 53.3°F11.8°C 97% 3.0 mph NW4.8 kmh NW 5.0 mph8.0 kmh 30.00 in1015.9 mb 0.00 in0.0 mm 0.00 in0.0 mm 0.00 in0.0 mm
03:45 AM 54.2°F12.3°C 53.4°F11.9°C 97% 3.0 mph NW4.8 kmh NW 7.0 mph11.3 kmh 30.00 in1015.9 mb 0.00 in0.0 mm 0.00 in0.0 mm 0.00 in0.0 mm
03:40 AM 54.2°F12.3°C 53.4°F11.9°C 97% 3.0 mph NW4.8 kmh NW 7.0 mph11.3 kmh 30.00 in1015.9 mb 0.00 in0.0 mm 0.00 in0.0 mm 0.00 in0.0 mm
03:35 AM 54.2°F12.3°C 53.4°F11.9°C 97% 3.1 mph WNW5.0 kmh WNW 7.0 mph11.3 kmh 30.00 in1015.9 mb 0.00 in0.0 mm 0.00 in0.0 mm 0.00 in0.0 mm
03:30 AM 54.4°F12.4°C 53.6°F12.0°C 97% 3.6 mph WNW5.8 kmh WNW 8.0 mph12.9 kmh 30.00 in1015.9 mb 0.00 in0.0 mm 0.00 in0.0 mm 0.00 in0.0 mm
03:25 AM 54.5°F12.5°C 53.7°F12.1°C 97% 4.0 mph WNW6.4 kmh WNW 8.0 mph12.9 kmh 29.99 in1015.6 mb 0.00 in0.0 mm 0.00 in0.0 mm 0.00 in0.0 mm
03:20 AM 54.6°F12.6°C 53.5°F11.9°C 96% 4.0 mph WNW6.4 kmh WNW 8.0 mph12.9 kmh 29.99 in1015.6 mb 0.00 in0.0 mm 0.00 in0.0 mm 0.00 in0.0 mm
03:15 AM 54.6°F12.6°C 53.5°F11.9°C 96% 4.0 mph WNW6.4 kmh WNW 8.0 mph12.9 kmh 29.99 in1015.6 mb 0.00 in0.0 mm 0.00 in0.0 mm 0.00 in0.0 mm
03:10 AM 54.6°F12.6°C 53.5°F11.9°C 96% 4.5 mph WNW7.2 kmh WNW 8.0 mph12.9 kmh 29.99 in1015.6 mb 0.00 in0.0 mm 0.00 in0.0 mm 0.00 in0.0 mm
03:05 AM 54.6°F12.6°C 53.5°F11.9°C 96% 4.8 mph W7.7 kmh W 8.0 mph12.9 kmh 29.99 in1015.6 mb 0.00 in0.0 mm 0.00 in0.0 mm 0.00 in0.0 mm
03:00 AM 54.7°F12.6°C 53.6°F12.0°C 96% 3.8 mph W6.1 kmh W 8.0 mph12.9 kmh 29.99 in1015.6 mb 0.00 in0.0 mm 0.00 in0.0 mm 0.00 in0.0 mm
02:55 AM 54.8°F12.7°C 53.7°F12.1°C 96% 2.5 mph W4.0 kmh W 8.0 mph12.9 kmh 29.99 in1015.6 mb 0.00 in0.0 mm 0.00 in0.0 mm 0.00 in0.0 mm
02:50 AM 54.8°F12.7°C 53.7°F12.1°C 96% 1.7 mph WNW2.7 kmh WNW 6.0 mph9.7 kmh 29.99 in1015.6 mb 0.00 in0.0 mm 0.00 in0.0 mm 0.00 in0.0 mm
02:45 AM 54.8°F12.7°C 53.7°F12.1°C 96% 1.3 mph NW2.1 kmh NW 4.0 mph6.4 kmh 29.99 in1015.6 mb 0.00 in0.0 mm 0.00 in0.0 mm 0.00 in0.0 mm
02:40 AM 54.7°F12.6°C 53.6°F12.0°C 96% 1.6 mph NW2.6 kmh NW 3.0 mph4.8 kmh 29.99 in1015.6 mb 0.00 in0.0 mm 0.00 in0.0 mm 0.00 in0.0 mm
02:35 AM 54.8°F12.7°C 53.7°F12.1°C 96% 2.0 mph NW3.2 kmh NW 4.0 mph6.4 kmh 29.99 in1015.6 mb 0.00 in0.0 mm 0.00 in0.0 mm 0.00 in0.0 mm
02:30 AM 54.8°F12.7°C 53.7°F12.1°C 96% 2.0 mph WNW3.2 kmh WNW 4.0 mph6.4 kmh 29.99 in1015.6 mb 0.00 in0.0 mm 0.00 in0.0 mm 0.00 in0.0 mm
02:25 AM 54.9°F12.7°C 53.8°F12.1°C 96% 2.4 mph NW3.9 kmh NW 7.0 mph11.3 kmh 29.99 in1015.6 mb 0.00 in0.0 mm 0.00 in0.0 mm 0.00 in0.0 mm
02:20 AM 54.9°F12.7°C 53.8°F12.1°C 96% 2.9 mph NW4.7 kmh NW 7.0 mph11.3 kmh 29.99 in1015.6 mb 0.00 in0.0 mm 0.00 in0.0 mm 0.00 in0.0 mm
02:15 AM 54.9°F12.7°C 53.8°F12.1°C 96% 3.0 mph NW4.8 kmh NW 7.0 mph11.3 kmh 29.99 in1015.6 mb 0.00 in0.0 mm 0.00 in0.0 mm 0.00 in0.0 mm
02:10 AM 55.0°F12.8°C 53.9°F12.2°C 96% 3.0 mph NW4.8 kmh NW 7.0 mph11.3 kmh 29.99 in1015.6 mb 0.00 in0.0 mm 0.00 in0.0 mm 0.00 in0.0 mm
02:05 AM 55.1°F12.8°C 54.0°F12.2°C 96% 3.0 mph NW4.8 kmh NW 7.0 mph11.3 kmh 29.99 in1015.6 mb 0.00 in0.0 mm 0.00 in0.0 mm 0.00 in0.0 mm
02:00 AM 55.1°F12.8°C 54.0°F12.2°C 96% 3.0 mph NW4.8 kmh NW 7.0 mph11.3 kmh 29.99 in1015.6 mb 0.00 in0.0 mm 0.00 in0.0 mm 0.00 in0.0 mm
01:55 AM 55.1°F12.8°C 54.0°F12.2°C 96% 3.0 mph NW4.8 kmh NW 7.0 mph11.3 kmh 29.99 in1015.6 mb 0.00 in0.0 mm 0.00 in0.0 mm 0.00 in0.0 mm
01:50 AM 55.2°F12.9°C 54.1°F12.3°C 96% 2.7 mph WNW4.3 kmh WNW 7.0 mph11.3 kmh 29.99 in1015.6 mb 0.00 in0.0 mm 0.00 in0.0 mm 0.00 in0.0 mm
01:45 AM 55.2°F12.9°C 54.1°F12.3°C 96% 2.6 mph WNW4.2 kmh WNW 7.0 mph11.3 kmh 29.99 in1015.6 mb 0.00 in0.0 mm 0.00 in0.0 mm 0.00 in0.0 mm
01:40 AM 55.2°F12.9°C 54.1°F12.3°C 96% 2.8 mph NW4.5 kmh NW 7.0 mph11.3 kmh 29.99 in1015.6 mb 0.00 in0.0 mm 0.00 in0.0 mm 0.00 in0.0 mm
01:35 AM 55.3°F12.9°C 54.2°F12.3°C 96% 2.4 mph NW3.9 kmh NW 7.0 mph11.3 kmh 29.99 in1015.6 mb 0.00 in0.0 mm 0.00 in0.0 mm 0.00 in0.0 mm
01:30 AM 55.3°F12.9°C 54.2°F12.3°C 96% 2.0 mph NW3.2 kmh NW 5.0 mph8.0 kmh 29.99 in1015.6 mb 0.00 in0.0 mm 0.00 in0.0 mm 0.00 in0.0 mm
01:25 AM 55.3°F12.9°C 54.2°F12.3°C 96% 2.0 mph WNW3.2 kmh WNW 4.0 mph6.4 kmh 29.99 in1015.6 mb 0.00 in0.0 mm 0.00 in0.0 mm 0.00 in0.0 mm
01:20 AM 55.3°F12.9°C 54.2°F12.3°C 96% 2.4 mph NW3.9 kmh NW 4.0 mph6.4 kmh 29.99 in1015.6 mb 0.00 in0.0 mm 0.00 in0.0 mm 0.00 in0.0 mm
01:15 AM 55.3°F12.9°C 54.2°F12.3°C 96% 2.9 mph NW4.7 kmh NW 5.0 mph8.0 kmh 29.98 in1015.2 mb 0.00 in0.0 mm 0.00 in0.0 mm 0.00 in0.0 mm
01:10 AM 55.3°F12.9°C 54.2°F12.3°C 96% 3.0 mph NW4.8 kmh NW 5.0 mph8.0 kmh 29.98 in1015.2 mb 0.00 in0.0 mm 0.00 in0.0 mm 0.00 in0.0 mm
01:05 AM 55.3°F12.9°C 54.2°F12.3°C 96% 2.8 mph NW4.5 kmh NW 5.0 mph8.0 kmh 29.98 in1015.2 mb 0.00 in0.0 mm 0.00 in0.0 mm 0.00 in0.0 mm
01:00 AM 55.3°F12.9°C 54.2°F12.3°C 96% 2.6 mph NW4.2 kmh NW 5.0 mph8.0 kmh 29.98 in1015.2 mb 0.00 in0.0 mm 0.00 in0.0 mm 0.00 in0.0 mm
12:55 AM 55.3°F12.9°C 54.2°F12.3°C 96% 2.5 mph NW4.0 kmh NW 4.0 mph6.4 kmh 29.98 in1015.2 mb 0.00 in0.0 mm 0.00 in0.0 mm 0.00 in0.0 mm
12:50 AM 55.3°F12.9°C 54.2°F12.3°C 96% 2.3 mph NW3.7 kmh NW 6.0 mph9.7 kmh 29.99 in1015.6 mb 0.00 in0.0 mm 0.00 in0.0 mm 0.00 in0.0 mm
12:45 AM 55.4°F13.0°C 54.3°F12.4°C 96% 2.6 mph NW4.2 kmh NW 6.0 mph9.7 kmh 29.99 in1015.6 mb 0.00 in0.0 mm 0.00 in0.0 mm 0.00 in0.0 mm
12:40 AM 55.4°F13.0°C 54.3°F12.4°C 96% 3.0 mph NW4.8 kmh NW 4.0 mph6.4 kmh 29.99 in1015.6 mb 0.00 in0.0 mm 0.00 in0.0 mm 0.00 in0.0 mm
12:35 AM 55.4°F13.0°C 54.3°F12.4°C 96% 2.8 mph WNW4.5 kmh WNW 6.0 mph9.7 kmh 29.99 in1015.6 mb 0.00 in0.0 mm 0.00 in0.0 mm 0.00 in0.0 mm
12:30 AM 55.4°F13.0°C 54.3°F12.4°C 96% 2.3 mph WNW3.7 kmh WNW 6.0 mph9.7 kmh 29.99 in1015.6 mb 0.00 in0.0 mm 0.00 in0.0 mm 0.00 in0.0 mm
12:25 AM 55.4°F13.0°C 54.3°F12.4°C 96% 2.0 mph WNW3.2 kmh WNW 5.0 mph8.0 kmh 30.00 in1015.9 mb 0.00 in0.0 mm 0.00 in0.0 mm 0.00 in0.0 mm
12:20 AM 55.4°F13.0°C 54.3°F12.4°C 96% 2.4 mph WNW3.9 kmh WNW 5.0 mph8.0 kmh 30.00 in1015.9 mb 0.00 in0.0 mm 0.00 in0.0 mm 0.00 in0.0 mm
12:15 AM 55.4°F13.0°C 54.3°F12.4°C 96% 2.9 mph WNW4.7 kmh WNW 5.0 mph8.0 kmh 30.00 in1015.9 mb 0.00 in0.0 mm 0.00 in0.0 mm 0.00 in0.0 mm
12:10 AM 55.5°F13.1°C 54.4°F12.4°C 96% 2.5 mph NW4.0 kmh NW 6.0 mph9.7 kmh 29.99 in1015.6 mb 0.00 in0.0 mm 0.00 in0.0 mm 0.00 in0.0 mm
12:05 AM 55.6°F13.1°C 54.2°F12.3°C 95% 2.0 mph NW3.2 kmh NW 6.0 mph9.7 kmh 29.99 in1015.6 mb 0.00 in0.0 mm 0.00 in0.0 mm 0.00 in0.0 mm
12:00 AM 55.7°F13.2°C 54.3°F12.4°C 95% 2.0 mph NW3.2 kmh NW 5.0 mph8.0 kmh 29.99 in1015.6 mb 0.00 in0.0 mm 0.00 in0.0 mm 0.00 in0.0 mm